Terminal Aerodrome Forecast
Issued by NWS

Home | Current Version | Previous Version | Text Only | Print | Product List | Glossary On
Versions: 1 2 3 4 5 6 7 8 9 10 11 12
000
FTUS46 KSGX 211120
TAFONT
TAF
KONT 211120Z 2112/2218 VRB04KT P6SM SKC
     FM212000 26011G18KT P6SM SKC
     FM220500 VRB04KT P6SM SKC=

USA.gov is the U.S. government's official web portal to all federal, state and local government web resources and services.